sensor_id;sensor_type;location;lat;lon;timestamp;pressure;altitude;pressure_sealevel;temperature;humidity
67517;BME280;68821;59.134;37.894;2024-03-08T00:00:17;99891.91;;;-1.02;73.92
67517;BME280;68821;59.134;37.894;2024-03-08T00:02:46;99870.06;;;-1.01;73.89
67517;BME280;68821;59.134;37.894;2024-03-08T00:05:13;99876.25;;;-0.96;73.64
67517;BME280;68821;59.134;37.894;2024-03-08T00:07:40;99878.06;;;-0.93;73.79
67517;BME280;68821;59.134;37.894;2024-03-08T00:10:08;99869.00;;;-0.90;73.87
67517;BME280;68821;59.134;37.894;2024-03-08T00:12:40;99900.38;;;-0.85;73.54
67517;BME280;68821;59.134;37.894;2024-03-08T00:15:14;99870.19;;;-0.83;73.63
67517;BME280;68821;59.134;37.894;2024-03-08T00:17:41;99869.44;;;-0.82;74.13
67517;BME280;68821;59.134;37.894;2024-03-08T00:20:07;99865.50;;;-0.77;73.86
67517;BME280;68821;59.134;37.894;2024-03-08T00:22:39;99847.81;;;-0.77;73.62
67517;BME280;68821;59.134;37.894;2024-03-08T00:25:06;99860.69;;;-0.72;73.45
67517;BME280;68821;59.134;37.894;2024-03-08T00:27:36;99854.84;;;-0.71;73.58
67517;BME280;68821;59.134;37.894;2024-03-08T00:30:03;99842.00;;;-0.76;73.81
67517;BME280;68821;59.134;37.894;2024-03-08T00:32:29;99845.28;;;-0.77;74.20
67517;BME280;68821;59.134;37.894;2024-03-08T00:34:54;99858.00;;;-0.75;74.15
67517;BME280;68821;59.134;37.894;2024-03-08T00:37:21;99842.88;;;-0.75;74.52
67517;BME280;68821;59.134;37.894;2024-03-08T00:39:51;99836.34;;;-0.72;74.00
67517;BME280;68821;59.134;37.894;2024-03-08T00:42:18;99845.81;;;-0.68;74.40
67517;BME280;68821;59.134;37.894;2024-03-08T00:44:45;99839.19;;;-0.66;74.42
67517;BME280;68821;59.134;37.894;2024-03-08T00:47:11;99842.56;;;-0.65;74.57
67517;BME280;68821;59.134;37.894;2024-03-08T00:49:37;99831.66;;;-0.64;74.33
67517;BME280;68821;59.134;37.894;2024-03-08T00:52:04;99838.69;;;-0.58;74.16
67517;BME280;68821;59.134;37.894;2024-03-08T00:54:34;99846.44;;;-0.55;74.30
67517;BME280;68821;59.134;37.894;2024-03-08T00:57:02;99824.69;;;-0.53;74.09
67517;BME280;68821;59.134;37.894;2024-03-08T00:59:29;99839.19;;;-0.49;74.21
67517;BME280;68821;59.134;37.894;2024-03-08T01:01:55;99835.72;;;-0.51;74.33
67517;BME280;68821;59.134;37.894;2024-03-08T01:04:22;99832.16;;;-0.55;74.15
67517;BME280;68821;59.134;37.894;2024-03-08T01:06:48;99832.88;;;-0.57;74.61
67517;BME280;68821;59.134;37.894;2024-03-08T01:09:14;99836.16;;;-0.58;74.68
67517;BME280;68821;59.134;37.894;2024-03-08T01:11:43;99840.28;;;-0.61;74.42
67517;BME280;68821;59.134;37.894;2024-03-08T01:14:09;99830.03;;;-0.64;74.76
67517;BME280;68821;59.134;37.894;2024-03-08T01:16:35;99820.16;;;-0.59;74.75
67517;BME280;68821;59.134;37.894;2024-03-08T01:19:01;99826.78;;;-0.61;74.89
67517;BME280;68821;59.134;37.894;2024-03-08T01:21:29;99811.66;;;-0.61;74.59
67517;BME280;68821;59.134;37.894;2024-03-08T01:23:55;99815.13;;;-0.59;75.24
67517;BME280;68821;59.134;37.894;2024-03-08T01:26:21;99815.13;;;-0.59;75.10
67517;BME280;68821;59.134;37.894;2024-03-08T01:28:47;99815.25;;;-0.56;75.09
67517;BME280;68821;59.134;37.894;2024-03-08T01:31:13;99816.22;;;-0.54;75.70
67517;BME280;68821;59.134;37.894;2024-03-08T01:33:39;99811.34;;;-0.51;75.25
67517;BME280;68821;59.134;37.894;2024-03-08T01:36:06;99822.28;;;-0.50;75.10
67517;BME280;68821;59.134;37.894;2024-03-08T01:38:32;99818.03;;;-0.51;75.23
67517;BME280;68821;59.134;37.894;2024-03-08T01:40:57;99810.63;;;-0.48;74.78
67517;BME280;68821;59.134;37.894;2024-03-08T01:43:28;99812.38;;;-0.47;74.91
67517;BME280;68821;59.134;37.894;2024-03-08T01:45:58;99812.41;;;-0.46;75.03
67517;BME280;68821;59.134;37.894;2024-03-08T01:48:31;99803.03;;;-0.48;74.60
67517;BME280;68821;59.134;37.894;2024-03-08T01:50:58;99803.59;;;-0.54;74.76
67517;BME280;68821;59.134;37.894;2024-03-08T01:53:24;99817.88;;;-0.54;75.04
67517;BME280;68821;59.134;37.894;2024-03-08T01:55:53;99820.31;;;-0.56;75.12
67517;BME280;68821;59.134;37.894;2024-03-08T01:58:20;99805.03;;;-0.59;74.70
67517;BME280;68821;59.134;37.894;2024-03-08T02:00:48;99810.69;;;-0.63;75.34
67517;BME280;68821;59.134;37.894;2024-03-08T02:03:17;99817.22;;;-0.67;74.79
67517;BME280;68821;59.134;37.894;2024-03-08T02:05:43;99819.44;;;-0.73;74.97
67517;BME280;68821;59.134;37.894;2024-03-08T02:08:09;99820.25;;;-0.74;74.83
67517;BME280;68821;59.134;37.894;2024-03-08T02:10:40;99829.28;;;-0.77;75.02
67517;BME280;68821;59.134;37.894;2024-03-08T02:13:11;99819.03;;;-0.81;75.02
67517;BME280;68821;59.134;37.894;2024-03-08T02:16:03;99815.63;;;-0.81;75.15
67517;BME280;68821;59.134;37.894;2024-03-08T02:18:30;99819.19;;;-0.77;75.32
67517;BME280;68821;59.134;37.894;2024-03-08T02:20:59;99820.91;;;-0.76;75.36
67517;BME280;68821;59.134;37.894;2024-03-08T02:23:26;99815.97;;;-0.75;75.32
67517;BME280;68821;59.134;37.894;2024-03-08T02:25:53;99815.34;;;-0.71;75.41
67517;BME280;68821;59.134;37.894;2024-03-08T02:28:20;99817.22;;;-0.67;75.38
67517;BME280;68821;59.134;37.894;2024-03-08T02:30:47;99807.53;;;-0.59;75.67
67517;BME280;68821;59.134;37.894;2024-03-08T02:33:14;99810.38;;;-0.53;75.60
67517;BME280;68821;59.134;37.894;2024-03-08T02:35:44;99811.47;;;-0.48;75.34
67517;BME280;68821;59.134;37.894;2024-03-08T02:38:14;99816.06;;;-0.41;75.04
67517;BME280;68821;59.134;37.894;2024-03-08T02:40:48;99811.16;;;-0.37;75.31
67517;BME280;68821;59.134;37.894;2024-03-08T02:43:16;99818.19;;;-0.32;75.36
67517;BME280;68821;59.134;37.894;2024-03-08T02:45:43;99816.84;;;-0.25;75.23
67517;BME280;68821;59.134;37.894;2024-03-08T02:48:13;99823.78;;;-0.21;75.12
67517;BME280;68821;59.134;37.894;2024-03-08T02:50:39;99822.38;;;-0.16;75.20
67517;BME280;68821;59.134;37.894;2024-03-08T02:53:06;99815.88;;;-0.11;75.56
67517;BME280;68821;59.134;37.894;2024-03-08T02:55:32;99802.69;;;-0.05;75.98
67517;BME280;68821;59.134;37.894;2024-03-08T02:58:02;99801.19;;;-0.02;75.43
67517;BME280;68821;59.134;37.894;2024-03-08T03:00:31;99808.25;;;0.06;75.02
67517;BME280;68821;59.134;37.894;2024-03-08T03:02:58;99806.00;;;0.10;74.97
67517;BME280;68821;59.134;37.894;2024-03-08T03:05:24;99805.09;;;0.10;75.08
67517;BME280;68821;59.134;37.894;2024-03-08T03:07:51;99799.41;;;0.14;74.98
67517;BME280;68821;59.134;37.894;2024-03-08T03:10:17;99800.34;;;0.16;74.89
67517;BME280;68821;59.134;37.894;2024-03-08T03:12:47;99803.75;;;0.16;75.08
67517;BME280;68821;59.134;37.894;2024-03-08T03:15:16;99800.59;;;0.21;75.00
67517;BME280;68821;59.134;37.894;2024-03-08T03:17:50;99791.44;;;0.23;74.95
67517;BME280;68821;59.134;37.894;2024-03-08T03:20:17;99795.75;;;0.25;74.86
67517;BME280;68821;59.134;37.894;2024-03-08T03:22:52;99787.44;;;0.28;75.02
67517;BME280;68821;59.134;37.894;2024-03-08T03:25:19;99790.78;;;0.27;74.27
67517;BME280;68821;59.134;37.894;2024-03-08T03:27:55;99790.78;;;0.27;74.68
67517;BME280;68821;59.134;37.894;2024-03-08T03:30:24;99783.13;;;0.25;74.75
67517;BME280;68821;59.134;37.894;2024-03-08T03:32:52;99782.91;;;0.21;74.58
67517;BME280;68821;59.134;37.894;2024-03-08T03:35:21;99785.56;;;0.24;74.56
67517;BME280;68821;59.134;37.894;2024-03-08T03:37:47;99785.56;;;0.24;74.64
67517;BME280;68821;59.134;37.894;2024-03-08T03:40:35;99787.97;;;0.21;74.45
67517;BME280;68821;59.134;37.894;2024-03-08T03:43:01;99793.72;;;0.18;75.00
67517;BME280;68821;59.134;37.894;2024-03-08T03:45:29;99793.50;;;0.13;74.67
67517;BME280;68821;59.134;37.894;2024-03-08T03:47:55;99783.31;;;0.12;74.67
67517;BME280;68821;59.134;37.894;2024-03-08T03:50:21;99777.47;;;0.13;75.36
67517;BME280;68821;59.134;37.894;2024-03-08T03:52:50;99780.06;;;0.14;74.79
67517;BME280;68821;59.134;37.894;2024-03-08T03:55:16;99770.09;;;0.17;75.06
67517;BME280;68821;59.134;37.894;2024-03-08T03:57:43;99778.63;;;0.19;74.65
67517;BME280;68821;59.134;37.894;2024-03-08T04:00:11;99777.19;;;0.25;74.71
67517;BME280;68821;59.134;37.894;2024-03-08T04:02:37;99790.13;;;0.31;74.69
67517;BME280;68821;59.134;37.894;2024-03-08T04:05:07;99779.94;;;0.29;74.87
67517;BME280;68821;59.134;37.894;2024-03-08T04:07:34;99781.44;;;0.26;74.66
67517;BME280;68821;59.134;37.894;2024-03-08T04:10:02;99788.16;;;0.25;74.66
67517;BME280;68821;59.134;37.894;2024-03-08T04:12:28;99777.19;;;0.25;75.20
67517;BME280;68821;59.134;37.894;2024-03-08T04:14:55;99777.97;;;0.24;75.08
67517;BME280;68821;59.134;37.894;2024-03-08T04:17:22;99774.69;;;0.25;75.19
67517;BME280;68821;59.134;37.894;2024-03-08T04:19:50;99772.06;;;0.23;74.86
67517;BME280;68821;59.134;37.894;2024-03-08T04:22:18;99786.72;;;0.30;74.96
67517;BME280;68821;59.134;37.894;2024-03-08T04:24:45;99771.56;;;0.30;74.85
67517;BME280;68821;59.134;37.894;2024-03-08T04:27:12;99775.03;;;0.32;74.78
67517;BME280;68821;59.134;37.894;2024-03-08T04:29:38;99780.25;;;0.35;75.24
67517;BME280;68821;59.134;37.894;2024-03-08T04:32:05;99769.09;;;0.32;74.99
67517;BME280;68821;59.134;37.894;2024-03-08T04:34:32;99777.53;;;0.32;75.26
67517;BME280;68821;59.134;37.894;2024-03-08T04:37:01;99765.72;;;0.31;74.98
67517;BME280;68821;59.134;37.894;2024-03-08T04:39:27;99771.84;;;0.36;75.25
67517;BME280;68821;59.134;37.894;2024-03-08T04:41:59;99772.88;;;0.40;75.00
67517;BME280;68821;59.134;37.894;2024-03-08T04:44:27;99771.34;;;0.44;75.05
67517;BME280;68821;59.134;37.894;2024-03-08T04:46:52;99773.97;;;0.45;74.81
67517;BME280;68821;59.134;37.894;2024-03-08T04:49:18;99761.59;;;0.51;75.31
67517;BME280;68821;59.134;37.894;2024-03-08T04:51:44;99766.16;;;0.58;75.29
67517;BME280;68821;59.134;37.894;2024-03-08T04:54:11;99769.53;;;0.59;75.17
67517;BME280;68821;59.134;37.894;2024-03-08T04:56:37;99761.00;;;0.57;75.02
67517;BME280;68821;59.134;37.894;2024-03-08T04:59:03;99775.41;;;0.58;74.96
67517;BME280;68821;59.134;37.894;2024-03-08T05:01:29;99774.38;;;0.54;75.39
67517;BME280;68821;59.134;37.894;2024-03-08T05:03:55;99775.25;;;0.55;75.16
67517;BME280;68821;59.134;37.894;2024-03-08T05:06:21;99771.06;;;0.55;75.33
67517;BME280;68821;59.134;37.894;2024-03-08T05:08:49;99777.00;;;0.56;75.73
67517;BME280;68821;59.134;37.894;2024-03-08T05:11:15;99772.78;;;0.56;75.37
67517;BME280;68821;59.134;37.894;2024-03-08T05:13:41;99770.91;;;0.52;75.78
67517;BME280;68821;59.134;37.894;2024-03-08T05:16:07;99773.16;;;0.46;75.66
67517;BME280;68821;59.134;37.894;2024-03-08T05:18:34;99761.97;;;0.41;75.66
67517;BME280;68821;59.134;37.894;2024-03-08T05:21:01;99767.72;;;0.38;75.71
67517;BME280;68821;59.134;37.894;2024-03-08T05:23:30;99761.16;;;0.42;75.84
67517;BME280;68821;59.134;37.894;2024-03-08T05:25:56;99768.19;;;0.48;76.28
67517;BME280;68821;59.134;37.894;2024-03-08T05:28:23;99756.41;;;0.48;75.70
67517;BME280;68821;59.134;37.894;2024-03-08T05:30:49;99761.94;;;0.59;75.87
67517;BME280;68821;59.134;37.894;2024-03-08T05:33:15;99763.25;;;0.69;76.20
67517;BME280;68821;59.134;37.894;2024-03-08T05:35:41;99764.38;;;0.75;75.87
67517;BME280;68821;59.134;37.894;2024-03-08T05:38:07;99767.84;;;0.77;75.66
67517;BME280;68821;59.134;37.894;2024-03-08T05:40:33;99763.72;;;0.79;75.81
67517;BME280;68821;59.134;37.894;2024-03-08T05:42:59;99763.16;;;0.85;75.83
67517;BME280;68821;59.134;37.894;2024-03-08T05:45:25;99746.56;;;0.92;75.86
67517;BME280;68821;59.134;37.894;2024-03-08T05:47:52;99754.53;;;0.99;75.50
67517;BME280;68821;59.134;37.894;2024-03-08T05:50:18;99741.13;;;1.02;75.31
67517;BME280;68821;59.134;37.894;2024-03-08T05:52:45;99744.75;;;1.07;75.62
67517;BME280;68821;59.134;37.894;2024-03-08T05:55:13;99750.16;;;1.15;74.81
67517;BME280;68821;59.134;37.894;2024-03-08T05:57:41;99736.63;;;1.14;75.13
67517;BME280;68821;59.134;37.894;2024-03-08T06:00:08;99748.56;;;1.17;74.91
67517;BME280;68821;59.134;37.894;2024-03-08T06:02:34;99736.84;;;1.19;74.96
67517;BME280;68821;59.134;37.894;2024-03-08T06:05:02;99732.56;;;1.18;75.19
67517;BME280;68821;59.134;37.894;2024-03-08T06:07:28;99743.81;;;1.25;74.87
67517;BME280;68821;59.134;37.894;2024-03-08T06:09:55;99740.84;;;1.33;74.67
67517;BME280;68821;59.134;37.894;2024-03-08T06:12:21;99741.22;;;1.43;74.64
67517;BME280;68821;59.134;37.894;2024-03-08T06:14:47;99742.28;;;1.48;74.33
67517;BME280;68821;59.134;37.894;2024-03-08T06:17:14;99738.00;;;1.47;74.58
67517;BME280;68821;59.134;37.894;2024-03-08T06:19:40;99731.00;;;1.41;74.56
67517;BME280;68821;59.134;37.894;2024-03-08T06:22:06;99733.44;;;1.38;74.29
67517;BME280;68821;59.134;37.894;2024-03-08T06:24:33;99730.91;;;1.38;74.62
67517;BME280;68821;59.134;37.894;2024-03-08T06:27:02;99731.09;;;1.43;74.82
67517;BME280;68821;59.134;37.894;2024-03-08T06:29:28;99743.34;;;1.53;74.90
67517;BME280;68821;59.134;37.894;2024-03-08T06:31:54;99739.72;;;1.67;74.90
67517;BME280;68821;59.134;37.894;2024-03-08T06:34:21;99736.03;;;1.80;74.93
67517;BME280;68821;59.134;37.894;2024-03-08T06:36:47;99732.34;;;1.93;74.17
67517;BME280;68821;59.134;37.894;2024-03-08T06:39:13;99731.78;;;2.00;73.85
67517;BME280;68821;59.134;37.894;2024-03-08T06:41:39;99724.88;;;1.96;74.13
67517;BME280;68821;59.134;37.894;2024-03-08T06:44:06;99736.00;;;1.99;73.98
67517;BME280;68821;59.134;37.894;2024-03-08T06:46:33;99725.25;;;2.05;74.11
67517;BME280;68821;59.134;37.894;2024-03-08T06:48:59;99718.84;;;2.15;73.86
67517;BME280;68821;59.134;37.894;2024-03-08T06:51:26;99721.25;;;2.33;73.84
67517;BME280;68821;59.134;37.894;2024-03-08T06:53:52;99720.13;;;2.47;73.71
67517;BME280;68821;59.134;37.894;2024-03-08T06:56:18;99720.53;;;2.58;73.20
67517;BME280;68821;59.134;37.894;2024-03-08T06:58:45;99720.97;;;2.69;73.46
67517;BME280;68821;59.134;37.894;2024-03-08T07:01:11;99712.81;;;2.77;73.21
67517;BME280;68821;59.134;37.894;2024-03-08T07:03:43;99723.53;;;2.93;72.44
67517;BME280;68821;59.134;37.894;2024-03-08T07:06:11;99718.03;;;3.05;72.89
67517;BME280;68821;59.134;37.894;2024-03-08T07:08:36;99712.47;;;3.15;72.53
67517;BME280;68821;59.134;37.894;2024-03-08T07:11:03;99718.59;;;3.20;72.60
67517;BME280;68821;59.134;37.894;2024-03-08T07:13:29;99715.88;;;3.15;72.18
67517;BME280;68821;59.134;37.894;2024-03-08T07:15:55;99715.50;;;3.05;71.87
67517;BME280;68821;59.134;37.894;2024-03-08T07:18:21;99721.88;;;2.93;72.16
67517;BME280;68821;59.134;37.894;2024-03-08T07:20:47;99722.22;;;2.80;72.43
67517;BME280;68821;59.134;37.894;2024-03-08T07:23:15;99708.91;;;2.63;72.43
67517;BME280;68821;59.134;37.894;2024-03-08T07:26:01;99722.59;;;2.46;72.73
67517;BME280;68821;59.134;37.894;2024-03-08T07:28:27;99714.50;;;2.33;72.71
67517;BME280;68821;59.134;37.894;2024-03-08T07:30:53;99712.72;;;2.31;73.26
67517;BME280;68821;59.134;37.894;2024-03-08T07:33:28;99726.50;;;2.37;73.43
67517;BME280;68821;59.134;37.894;2024-03-08T07:35:54;99720.81;;;2.43;73.65
67517;BME280;68821;59.134;37.894;2024-03-08T07:38:20;99708.97;;;2.44;73.57
67517;BME280;68821;59.134;37.894;2024-03-08T07:40:47;99711.81;;;2.51;73.52
67517;BME280;68821;59.134;37.894;2024-03-08T07:43:13;99713.56;;;2.52;73.15
67517;BME280;68821;59.134;37.894;2024-03-08T07:45:39;99707.91;;;2.59;73.06
67517;BME280;68821;59.134;37.894;2024-03-08T07:48:06;99719.72;;;2.59;73.30
67517;BME280;68821;59.134;37.894;2024-03-08T07:50:39;99707.81;;;2.56;72.81
67517;BME280;68821;59.134;37.894;2024-03-08T07:53:06;99716.84;;;2.72;73.18
67517;BME280;68821;59.134;37.894;2024-03-08T07:55:33;99720.81;;;2.66;73.02
67517;BME280;68821;59.134;37.894;2024-03-08T07:58:01;99720.81;;;2.66;72.92
67517;BME280;68821;59.134;37.894;2024-03-08T08:00:29;99703.88;;;2.65;73.04
67517;BME280;68821;59.134;37.894;2024-03-08T08:02:57;99711.66;;;2.69;72.88
67517;BME280;68821;59.134;37.894;2024-03-08T08:05:23;99721.19;;;2.75;73.11
67517;BME280;68821;59.134;37.894;2024-03-08T08:07:49;99730.66;;;2.79;72.55
67517;BME280;68821;59.134;37.894;2024-03-08T08:10:15;99716.03;;;2.73;72.54
67517;BME280;68821;59.134;37.894;2024-03-08T08:12:48;99736.19;;;2.69;73.00
67517;BME280;68821;59.134;37.894;2024-03-08T08:15:14;99726.03;;;2.69;72.83
67517;BME280;68821;59.134;37.894;2024-03-08T08:17:46;99732.50;;;2.83;72.94
67517;BME280;68821;59.134;37.894;2024-03-08T08:20:13;99733.50;;;2.88;72.27
67517;BME280;68821;59.134;37.894;2024-03-08T08:22:39;99722.66;;;2.92;72.79
67517;BME280;68821;59.134;37.894;2024-03-08T08:25:07;99734.25;;;3.08;72.32
67517;BME280;68821;59.134;37.894;2024-03-08T08:27:34;99739.00;;;3.23;71.88
67517;BME280;68821;59.134;37.894;2024-03-08T08:30:03;99722.50;;;3.34;71.40
67517;BME280;68821;59.134;37.894;2024-03-08T08:32:34;99741.19;;;3.36;71.18
67517;BME280;68821;59.134;37.894;2024-03-08T08:35:03;99730.31;;;3.40;70.50
67517;BME280;68821;59.134;37.894;2024-03-08T08:37:31;99740.72;;;3.47;70.48
67517;BME280;68821;59.134;37.894;2024-03-08T08:39:57;99729.66;;;3.46;70.36
67517;BME280;68821;59.134;37.894;2024-03-08T08:42:24;99729.78;;;3.49;70.24
67517;BME280;68821;59.134;37.894;2024-03-08T08:44:51;99726.47;;;3.52;69.96
67517;BME280;68821;59.134;37.894;2024-03-08T08:47:17;99729.56;;;3.67;69.92
67517;BME280;68821;59.134;37.894;2024-03-08T08:49:45;99737.09;;;3.90;69.96
67517;BME280;68821;59.134;37.894;2024-03-08T08:52:15;99729.38;;;4.14;69.44
67517;BME280;68821;59.134;37.894;2024-03-08T08:54:43;99728.03;;;4.25;68.72
67517;BME280;68821;59.134;37.894;2024-03-08T08:57:10;99732.50;;;4.32;68.27
67517;BME280;68821;59.134;37.894;2024-03-08T08:59:36;99728.56;;;4.42;67.81
67517;BME280;68821;59.134;37.894;2024-03-08T09:02:06;99732.22;;;4.50;67.86
67517;BME280;68821;59.134;37.894;2024-03-08T09:04:32;99734.34;;;4.65;67.98
67517;BME280;68821;59.134;37.894;2024-03-08T09:06:58;99732.69;;;4.66;67.26
67517;BME280;68821;59.134;37.894;2024-03-08T09:09:24;99740.16;;;4.59;66.86
67517;BME280;68821;59.134;37.894;2024-03-08T09:11:51;99745.84;;;4.52;66.58
67517;BME280;68821;59.134;37.894;2024-03-08T09:14:18;99733.84;;;4.48;66.17
67517;BME280;68821;59.134;37.894;2024-03-08T09:16:45;99741.44;;;4.47;64.66
67517;BME280;68821;59.134;37.894;2024-03-08T09:19:13;99741.94;;;4.35;65.65
67517;BME280;68821;59.134;37.894;2024-03-08T09:21:39;99743.25;;;4.23;65.79
67517;BME280;68821;59.134;37.894;2024-03-08T09:24:08;99768.81;;;4.27;65.19
67517;BME280;68821;59.134;37.894;2024-03-08T09:26:34;99757.41;;;4.15;64.48
67517;BME280;68821;59.134;37.894;2024-03-08T09:29:00;99775.13;;;4.12;65.10
67517;BME280;68821;59.134;37.894;2024-03-08T09:31:26;99759.22;;;4.19;64.87
67517;BME280;68821;59.134;37.894;2024-03-08T09:33:52;99765.09;;;4.17;63.91
67517;BME280;68821;59.134;37.894;2024-03-08T09:36:18;99755.50;;;4.08;64.25
67517;BME280;68821;59.134;37.894;2024-03-08T09:38:44;99765.56;;;4.05;64.34
67517;BME280;68821;59.134;37.894;2024-03-08T09:41:10;99749.56;;;4.09;64.45
67517;BME280;68821;59.134;37.894;2024-03-08T09:43:36;99749.19;;;4.24;64.78
67517;BME280;68821;59.134;37.894;2024-03-08T09:46:03;99754.59;;;4.60;64.91
67517;BME280;68821;59.134;37.894;2024-03-08T09:48:32;99739.41;;;4.92;64.84
67517;BME280;68821;59.134;37.894;2024-03-08T09:50:58;99754.75;;;5.24;63.87
67517;BME280;68821;59.134;37.894;2024-03-08T09:53:24;99747.09;;;5.54;63.74
67517;BME280;68821;59.134;37.894;2024-03-08T09:55:50;99752.09;;;5.83;63.23
67517;BME280;68821;59.134;37.894;2024-03-08T09:58:17;99752.69;;;5.73;62.01
67517;BME280;68821;59.134;37.894;2024-03-08T10:00:58;99746.03;;;5.46;62.29
67517;BME280;68821;59.134;37.894;2024-03-08T10:03:28;99744.44;;;5.83;63.82
67517;BME280;68821;59.134;37.894;2024-03-08T10:05:56;99742.34;;;6.73;62.27
67517;BME280;68821;59.134;37.894;2024-03-08T10:08:29;99736.31;;;8.01;61.91
67517;BME280;68821;59.134;37.894;2024-03-08T10:10:56;99725.50;;;9.44;59.72
67517;BME280;68821;59.134;37.894;2024-03-08T10:13:26;99722.25;;;10.65;58.58
67517;BME280;68821;59.134;37.894;2024-03-08T10:15:57;99727.03;;;11.98;56.28
67517;BME280;68821;59.134;37.894;2024-03-08T10:18:23;99718.13;;;13.38;53.48
67517;BME280;68821;59.134;37.894;2024-03-08T10:21:03;99714.44;;;14.81;51.56
67517;BME280;68821;59.134;37.894;2024-03-08T10:23:33;99724.22;;;16.42;49.27
67517;BME280;68821;59.134;37.894;2024-03-08T10:26:16;99734.66;;;16.88;46.36
67517;BME280;68821;59.134;37.894;2024-03-08T10:28:44;99761.59;;;15.06;46.80
67517;BME280;68821;59.134;37.894;2024-03-08T10:31:10;99789.69;;;12.85;48.49
67517;BME280;68821;59.134;37.894;2024-03-08T10:33:37;99800.91;;;10.41;50.64
67517;BME280;68821;59.134;37.894;2024-03-08T10:36:10;99812.06;;;8.40;53.87
67517;BME280;68821;59.134;37.894;2024-03-08T10:38:37;99811.66;;;6.88;56.22
67517;BME280;68821;59.134;37.894;2024-03-08T10:41:06;99819.72;;;5.99;58.14
67517;BME280;68821;59.134;37.894;2024-03-08T10:46:30;99822.22;;;4.79;59.96
67517;BME280;68821;59.134;37.894;2024-03-08T10:49:00;99801.50;;;4.41;60.81
67517;BME280;68821;59.134;37.894;2024-03-08T10:51:29;99802.38;;;5.25;62.57
67517;BME280;68821;59.134;37.894;2024-03-08T10:53:57;99795.28;;;6.80;60.90
67517;BME280;68821;59.134;37.894;2024-03-08T10:56:24;99792.69;;;8.04;59.62
67517;BME280;68821;59.134;37.894;2024-03-08T10:58:54;99789.47;;;9.29;57.31
67517;BME280;68821;59.134;37.894;2024-03-08T11:01:21;99780.72;;;9.90;54.86
67517;BME280;68821;59.134;37.894;2024-03-08T11:03:48;99787.94;;;10.27;54.14
67517;BME280;68821;59.134;37.894;2024-03-08T11:08:42;99795.63;;;10.27;52.43
67517;BME280;68821;59.134;37.894;2024-03-08T11:11:29;99786.66;;;10.83;52.70
67517;BME280;68821;59.134;37.894;2024-03-08T11:13:58;99783.47;;;11.35;50.97
67517;BME280;68821;59.134;37.894;2024-03-08T11:19:00;99775.88;;;11.74;50.05
67517;BME280;68821;59.134;37.894;2024-03-08T11:21:30;99772.53;;;12.55;48.62
67517;BME280;68821;59.134;37.894;2024-03-08T11:24:12;99775.94;;;12.72;48.52
67517;BME280;68821;59.134;37.894;2024-03-08T11:26:45;99778.47;;;12.95;47.49
67517;BME280;68821;59.134;37.894;2024-03-08T11:32:10;99781.13;;;12.51;45.43
67517;BME280;68821;59.134;37.894;2024-03-08T11:34:38;99790.41;;;11.58;46.04
67517;BME280;68821;59.134;37.894;2024-03-08T11:37:15;99793.38;;;10.64;46.63
67517;BME280;68821;59.134;37.894;2024-03-08T11:39:51;99804.69;;;9.90;47.44
67517;BME280;68821;59.134;37.894;2024-03-08T11:42:20;99800.03;;;9.54;48.07
67517;BME280;68821;59.134;37.894;2024-03-08T11:44:47;99799.59;;;9.20;48.82
67517;BME280;68821;59.134;37.894;2024-03-08T11:47:14;99810.00;;;8.70;47.72
67517;BME280;68821;59.134;37.894;2024-03-08T11:49:41;99826.19;;;8.17;48.00
67517;BME280;68821;59.134;37.894;2024-03-08T11:52:17;99817.50;;;7.64;48.02
67517;BME280;68821;59.134;37.894;2024-03-08T11:54:54;99820.72;;;7.12;47.82
67517;BME280;68821;59.134;37.894;2024-03-08T11:57:23;99834.78;;;6.56;49.34
67517;BME280;68821;59.134;37.894;2024-03-08T11:59:53;99817.50;;;6.11;49.56
67517;BME280;68821;59.134;37.894;2024-03-08T12:02:19;99834.19;;;6.00;50.88
67517;BME280;68821;59.134;37.894;2024-03-08T12:04:45;99832.81;;;6.13;51.43
67517;BME280;68821;59.134;37.894;2024-03-08T12:07:15;99836.56;;;6.26;51.00
67517;BME280;68821;59.134;37.894;2024-03-08T12:12:47;99833.72;;;6.13;51.19
67517;BME280;68821;59.134;37.894;2024-03-08T12:15:15;99845.56;;;6.11;52.26
67517;BME280;68821;59.134;37.894;2024-03-08T12:17:41;99845.69;;;6.51;51.73
67517;BME280;68821;59.134;37.894;2024-03-08T12:20:36;99832.09;;;6.88;51.26
67517;BME280;68821;59.134;37.894;2024-03-08T12:23:05;99833.09;;;6.95;51.57
67517;BME280;68821;59.134;37.894;2024-03-08T12:25:33;99846.25;;;6.74;51.17
67517;BME280;68821;59.134;37.894;2024-03-08T12:28:12;99844.00;;;6.51;51.78
67517;BME280;68821;59.134;37.894;2024-03-08T12:30:50;99845.16;;;6.64;51.65
67517;BME280;68821;59.134;37.894;2024-03-08T12:33:18;99847.94;;;7.11;51.95
67517;BME280;68821;59.134;37.894;2024-03-08T12:35:55;99833.75;;;7.24;51.48
67517;BME280;68821;59.134;37.894;2024-03-08T12:38:22;99853.63;;;7.37;51.97
67517;BME280;68821;59.134;37.894;2024-03-08T12:40:55;99841.16;;;7.97;51.06
67517;BME280;68821;59.134;37.894;2024-03-08T12:43:22;99854.25;;;8.59;50.26
67517;BME280;68821;59.134;37.894;2024-03-08T12:45:48;99858.53;;;9.18;49.83
67517;BME280;68821;59.134;37.894;2024-03-08T12:48:14;99856.41;;;8.88;48.89
67517;BME280;68821;59.134;37.894;2024-03-08T12:50:44;99865.13;;;8.00;49.57
67517;BME280;68821;59.134;37.894;2024-03-08T12:53:13;99876.31;;;7.22;50.75
67517;BME280;68821;59.134;37.894;2024-03-08T12:55:40;99872.19;;;6.54;50.65
67517;BME280;68821;59.134;37.894;2024-03-08T12:58:06;99877.38;;;5.94;50.42
67517;BME280;68821;59.134;37.894;2024-03-08T13:00:36;99886.16;;;5.44;51.76
67517;BME280;68821;59.134;37.894;2024-03-08T13:03:02;99900.28;;;5.06;51.89
67517;BME280;68821;59.134;37.894;2024-03-08T13:05:28;99906.22;;;4.78;52.56
67517;BME280;68821;59.134;37.894;2024-03-08T13:07:56;99913.03;;;4.79;52.84
67517;BME280;68821;59.134;37.894;2024-03-08T13:10:22;99920.81;;;4.83;52.60
67517;BME280;68821;59.134;37.894;2024-03-08T13:12:48;99912.13;;;4.51;53.23
67517;BME280;68821;59.134;37.894;2024-03-08T13:15:16;99917.94;;;4.23;53.21